createdAt,value
2023-04-01T00:00:12.297Z,14.80
2023-04-01T00:02:39.686Z,14.90
2023-04-01T00:05:07.937Z,14.80
2023-04-01T00:07:38.481Z,14.70
2023-04-01T00:10:10.991Z,14.90
2023-04-01T00:12:39.136Z,14.80
2023-04-01T00:15:10.763Z,14.90
2023-04-01T00:17:38.790Z,14.70
2023-04-01T00:20:09.284Z,14.50
2023-04-01T00:22:36.753Z,14.20
2023-04-01T00:25:05.445Z,14.00
2023-04-01T00:27:32.858Z,14.20
2023-04-01T00:30:00.154Z,14.40
2023-04-01T00:32:27.775Z,14.20
2023-04-01T00:34:55.034Z,14.30
2023-04-01T00:37:22.244Z,14.20
2023-04-01T00:39:49.611Z,14.40
2023-04-01T00:42:16.996Z,14.40
2023-04-01T00:44:46.399Z,14.50
2023-04-01T00:47:13.752Z,14.40
2023-04-01T00:49:44.897Z,14.30
2023-04-01T00:52:18.904Z,14.20
2023-04-01T00:54:51.692Z,14.30
2023-04-01T00:57:31.413Z,14.40
2023-04-01T00:59:59.291Z,14.50
2023-04-01T01:02:27.311Z,14.50
2023-04-01T01:05:02.632Z,14.70
2023-04-01T01:07:42.204Z,14.70
2023-04-01T01:10:38.446Z,14.50
2023-04-01T01:13:30.147Z,14.50
2023-04-01T01:16:37.649Z,14.60
2023-04-01T01:19:19.209Z,14.50
2023-04-01T01:22:08.351Z,14.40
2023-04-01T01:24:53.585Z,14.40
2023-04-01T01:27:22.993Z,14.40
2023-04-01T01:29:53.104Z,14.20
2023-04-01T01:32:26.620Z,14.30
2023-04-01T01:35:16.166Z,14.30
2023-04-01T01:37:46.308Z,14.30
2023-04-01T01:40:16.184Z,14.40
2023-04-01T01:42:48.488Z,14.40
2023-04-01T01:45:19.358Z,14.40
2023-04-01T01:47:47.111Z,14.50
2023-04-01T01:50:16.038Z,14.50
2023-04-01T01:52:43.240Z,14.30
2023-04-01T01:55:30.565Z,14.30
2023-04-01T01:58:02.145Z,14.30
2023-04-01T02:00:30.009Z,14.10
2023-04-01T02:03:00.098Z,14.00
2023-04-01T02:05:31.919Z,14.00
2023-04-01T02:08:22.721Z,14.00
2023-04-01T02:11:08.896Z,14.00
2023-04-01T02:13:41.532Z,14.10
2023-04-01T02:16:24.821Z,14.10
2023-04-01T02:18:55.597Z,14.20
2023-04-01T02:21:25.819Z,14.10
2023-04-01T02:23:54.881Z,14.00
2023-04-01T02:26:23.204Z,13.90
2023-04-01T02:28:52.029Z,13.70
2023-04-01T02:31:19.689Z,13.80
2023-04-01T02:34:06.494Z,13.80
2023-04-01T02:36:35.995Z,13.90
2023-04-01T02:39:05.410Z,13.90
2023-04-01T02:41:32.716Z,13.90
2023-04-01T02:44:00.475Z,13.90
2023-04-01T02:46:27.707Z,13.80
2023-04-01T02:48:54.972Z,13.90
2023-04-01T02:51:22.092Z,13.80
2023-04-01T02:53:49.354Z,13.90
2023-04-01T02:56:16.667Z,13.80
2023-04-01T02:58:43.951Z,13.80
2023-04-01T03:01:11.357Z,13.90
2023-04-01T03:03:38.815Z,13.90
2023-04-01T03:06:11.386Z,13.80
2023-04-01T03:08:38.798Z,13.80
2023-04-01T03:11:06.334Z,13.80
2023-04-01T03:13:33.980Z,13.80
2023-04-01T03:16:01.200Z,13.90
2023-04-01T03:18:28.486Z,13.90
2023-04-01T03:20:55.681Z,13.80
2023-04-01T03:23:22.907Z,13.80
2023-04-01T03:25:50.071Z,13.80
2023-04-01T03:28:17.374Z,13.80
2023-04-01T03:30:44.652Z,13.80
2023-04-01T03:33:11.904Z,13.80
2023-04-01T03:35:39.049Z,13.70
2023-04-01T03:38:06.256Z,13.80
2023-04-01T03:40:34.154Z,13.70
2023-04-01T03:43:01.408Z,13.70
2023-04-01T03:45:28.728Z,13.70
2023-04-01T03:47:56.112Z,13.50
2023-04-01T03:50:23.382Z,13.60
2023-04-01T03:52:50.751Z,13.60
2023-04-01T03:55:19.124Z,13.60
2023-04-01T03:57:46.477Z,13.60
2023-04-01T04:00:14.024Z,13.60
2023-04-01T04:02:41.292Z,13.60
2023-04-01T04:05:08.666Z,13.50
2023-04-01T04:07:36.669Z,13.40
2023-04-01T04:10:04.626Z,13.40
2023-04-01T04:12:31.930Z,13.40
2023-04-01T04:15:02.731Z,13.20
2023-04-01T04:17:32.912Z,13.00
2023-04-01T04:20:00.245Z,13.10
2023-04-01T04:22:27.713Z,13.00
2023-04-01T04:24:54.909Z,13.00
2023-04-01T04:27:22.115Z,12.90
2023-04-01T04:29:49.310Z,12.80
2023-04-01T04:32:16.500Z,12.70
2023-04-01T04:34:43.784Z,12.70
2023-04-01T04:37:10.949Z,12.80
2023-04-01T04:39:38.170Z,12.70
2023-04-01T04:42:06.375Z,12.50
2023-04-01T04:44:33.620Z,12.60
2023-04-01T04:47:03.734Z,12.50
2023-04-01T04:49:33.669Z,12.20
2023-04-01T04:52:00.928Z,12.40
2023-04-01T04:54:28.173Z,12.60
2023-04-01T04:56:56.059Z,12.80
2023-04-01T04:59:23.661Z,12.60
2023-04-01T05:01:51.047Z,12.70
2023-04-01T05:04:18.366Z,12.90
2023-04-01T05:06:46.238Z,13.00
2023-04-01T05:09:13.433Z,13.10
2023-04-01T05:11:41.339Z,13.20
2023-04-01T05:14:14.319Z,13.00
2023-04-01T05:16:41.526Z,13.10
2023-04-01T05:19:11.034Z,13.20
2023-04-01T05:21:38.269Z,13.10
2023-04-01T05:24:10.303Z,13.20
2023-04-01T05:26:38.058Z,13.20
2023-04-01T05:29:06.444Z,13.20
2023-04-01T05:31:33.663Z,13.40
2023-04-01T05:34:01.109Z,13.20
2023-04-01T05:36:28.255Z,13.30
2023-04-01T05:38:58.393Z,12.80
2023-04-01T05:41:25.702Z,13.00
2023-04-01T05:43:52.864Z,13.20
2023-04-01T05:46:20.085Z,13.40
2023-04-01T05:51:32.239Z,13.50
2023-04-01T05:54:00.556Z,13.30
2023-04-01T05:56:27.730Z,13.10
2023-04-01T05:59:03.292Z,13.30
2023-04-01T06:01:30.688Z,13.40
2023-04-01T06:03:58.145Z,13.60
2023-04-01T06:06:28.654Z,13.60
2023-04-01T06:08:58.811Z,13.90
2023-04-01T06:11:56.449Z,13.90
2023-04-01T06:14:38.766Z,13.80
2023-04-01T06:21:12.557Z,14.40
2023-04-01T06:24:01.004Z,14.50
2023-04-01T06:26:50.325Z,14.60
2023-04-01T06:29:39.701Z,14.90
2023-04-01T06:33:03.969Z,14.60
2023-04-01T06:35:47.950Z,14.70
2023-04-01T06:39:03.856Z,14.40
2023-04-01T06:41:37.154Z,14.60
2023-04-01T06:44:20.019Z,14.50
2023-04-01T06:47:08.846Z,14.70
2023-04-01T06:49:59.941Z,14.80
2023-04-01T06:52:48.742Z,14.80
2023-04-01T06:55:25.003Z,14.80
2023-04-01T06:57:56.478Z,14.60
2023-04-01T07:00:26.552Z,14.60
2023-04-01T07:03:19.872Z,14.60
2023-04-01T07:05:47.292Z,14.80
2023-04-01T07:08:29.178Z,14.80
2023-04-01T07:11:07.657Z,14.90
2023-04-01T07:13:42.533Z,15.00
2023-04-01T07:16:30.760Z,15.10
2023-04-01T07:19:36.969Z,15.10
2023-04-01T07:22:30.942Z,15.20
2023-04-01T07:25:02.665Z,15.00
2023-04-01T07:27:32.423Z,15.10
2023-04-01T07:30:01.454Z,15.30
2023-04-01T07:32:47.909Z,15.30
2023-04-01T07:35:54.083Z,15.60
2023-04-01T07:38:40.133Z,15.50
2023-04-01T07:41:16.746Z,15.70
2023-04-01T07:44:03.503Z,15.80
2023-04-01T07:46:59.217Z,15.80
2023-04-01T07:49:41.973Z,15.50
2023-04-01T07:52:34.345Z,15.50
2023-04-01T07:55:18.456Z,15.80
2023-04-01T07:58:16.671Z,16.00
2023-04-01T08:01:32.913Z,16.20
2023-04-01T08:04:00.419Z,16.20
2023-04-01T08:06:46.584Z,16.20
2023-04-01T08:09:43.197Z,16.40
2023-04-01T08:12:13.110Z,16.40
2023-04-01T08:15:13.189Z,16.70
2023-04-01T08:17:46.963Z,17.00
2023-04-01T08:20:20.414Z,17.40
2023-04-01T08:22:54.554Z,17.60
2023-04-01T08:25:26.860Z,17.80
2023-04-01T08:28:16.780Z,18.00
2023-04-01T08:30:50.989Z,18.20
2023-04-01T08:33:21.256Z,18.40
2023-04-01T08:35:57.545Z,18.20
2023-04-01T08:38:48.052Z,18.50
2023-04-01T08:41:35.450Z,18.50
2023-04-01T08:44:26.284Z,18.40
2023-04-01T08:47:17.901Z,18.30
2023-04-01T08:50:10.219Z,18.20
2023-04-01T08:52:42.468Z,18.40
2023-04-01T08:55:32.375Z,18.40
2023-04-01T08:58:17.932Z,18.70
2023-04-01T09:00:54.464Z,18.80
2023-04-01T09:03:40.136Z,18.60
2023-04-01T09:06:28.938Z,18.30
2023-04-01T09:08:59.229Z,18.20
2023-04-01T09:11:51.595Z,18.20
2023-04-01T09:14:50.432Z,18.30
2023-04-01T09:17:48.222Z,18.30
2023-04-01T09:20:36.622Z,18.50
2023-04-01T09:23:25.863Z,18.40
2023-04-01T09:25:58.989Z,18.30
2023-04-01T09:28:39.329Z,18.10
2023-04-01T09:31:39.701Z,18.00
2023-04-01T09:35:01.036Z,17.80
2023-04-01T09:37:36.274Z,17.70
2023-04-01T09:40:32.950Z,17.50
2023-04-01T09:43:21.832Z,17.50
2023-04-01T09:45:55.156Z,17.40
2023-04-01T09:48:52.418Z,17.30
2023-04-01T09:51:53.449Z,17.30
2023-04-01T09:54:36.248Z,17.40
2023-04-01T09:57:23.847Z,17.30
2023-04-01T10:00:28.784Z,17.30
2023-04-01T10:03:11.908Z,17.20
2023-04-01T10:06:32.106Z,17.10
2023-04-01T10:09:02.185Z,16.90
2023-04-01T10:11:35.690Z,16.90
2023-04-01T10:14:29.144Z,16.90
2023-04-01T10:17:10.109Z,17.00
2023-04-01T10:20:10.213Z,17.20
2023-04-01T10:23:09.866Z,17.10
2023-04-01T10:25:40.216Z,17.10
2023-04-01T10:28:21.114Z,17.30
2023-04-01T10:31:12.568Z,16.90
2023-04-01T10:34:02.757Z,17.50
2023-04-01T10:36:52.507Z,17.70
2023-04-01T10:39:42.068Z,17.70
2023-04-01T10:42:25.616Z,17.90
2023-04-01T10:44:55.586Z,18.10
2023-04-01T10:47:25.624Z,18.30
2023-04-01T10:50:30.544Z,18.40
2023-04-01T10:53:42.889Z,18.50
2023-04-01T10:56:31.237Z,19.20
2023-04-01T10:59:29.753Z,19.60
2023-04-01T11:02:18.597Z,19.70
2023-04-01T11:05:30.307Z,19.40
2023-04-01T11:08:32.575Z,18.90
2023-04-01T11:11:36.907Z,18.90
2023-04-01T11:14:52.472Z,18.90
2023-04-01T11:21:37.988Z,19.20
2023-04-01T11:24:57.735Z,19.00
2023-04-01T11:27:58.245Z,19.00
2023-04-01T11:30:56.743Z,19.00
2023-04-01T11:33:35.253Z,18.80
2023-04-01T11:36:28.388Z,18.60
2023-04-01T11:39:14.002Z,18.40
2023-04-01T11:42:03.452Z,18.60
2023-04-01T11:44:31.594Z,18.70
2023-04-01T11:47:12.522Z,18.70
2023-04-01T11:50:12.104Z,18.80
2023-04-01T11:53:16.491Z,18.70
2023-04-01T11:55:57.264Z,18.70
2023-04-01T11:58:30.500Z,18.80
2023-04-01T12:01:16.175Z,18.80
2023-04-01T12:04:17.164Z,18.70
2023-04-01T12:07:12.343Z,18.60
2023-04-01T12:10:04.839Z,18.50
2023-04-01T12:13:01.631Z,18.50
2023-04-01T12:15:38.924Z,18.00
2023-04-01T12:18:39.016Z,17.70
2023-04-01T12:21:37.728Z,17.50
2023-04-01T12:24:23.586Z,17.80
2023-04-01T12:27:02.801Z,16.90
2023-04-01T12:30:09.348Z,17.40
2023-04-01T12:33:15.760Z,18.80
2023-04-01T12:36:03.966Z,20.20
2023-04-01T12:38:52.037Z,18.90
2023-04-01T12:41:27.919Z,21.00
2023-04-01T12:44:14.234Z,20.00
2023-04-01T12:47:15.759Z,20.90
2023-04-01T12:50:13.228Z,21.60
2023-04-01T12:53:12.486Z,21.50
2023-04-01T12:55:43.776Z,23.50
2023-04-01T12:58:47.314Z,24.70
2023-04-01T13:01:23.624Z,27.10
2023-04-01T13:03:53.854Z,26.50
2023-04-01T13:06:29.707Z,27.40
2023-04-01T13:09:18.232Z,27.40
2023-04-01T13:12:07.038Z,28.50
2023-04-01T13:15:06.614Z,29.40
2023-04-01T13:18:16.140Z,29.50
2023-04-01T13:20:55.433Z,30.80
2023-04-01T13:23:35.712Z,27.90
2023-04-01T13:26:27.310Z,28.30
2023-04-01T13:29:22.285Z,25.10
2023-04-01T13:32:18.631Z,23.20
2023-04-01T13:34:51.689Z,24.10
2023-04-01T13:37:34.411Z,24.50
2023-04-01T13:41:01.753Z,23.20
2023-04-01T13:44:08.364Z,23.50
2023-04-01T13:46:43.974Z,22.70
2023-04-01T13:49:53.769Z,22.80
2023-04-01T13:52:50.678Z,23.30
2023-04-01T13:55:25.180Z,24.10
2023-04-01T14:00:55.539Z,23.20
2023-04-01T14:03:59.929Z,22.50
2023-04-01T14:06:59.782Z,22.30
2023-04-01T14:09:47.234Z,19.80
2023-04-01T14:12:22.778Z,20.40
2023-04-01T14:15:17.134Z,19.80
2023-04-01T14:18:05.971Z,19.30
2023-04-01T14:20:49.455Z,19.20
2023-04-01T14:23:59.749Z,19.20
2023-04-01T14:27:20.955Z,19.20
2023-04-01T14:30:24.972Z,19.20
2023-04-01T14:33:15.368Z,20.30
2023-04-01T14:39:50.795Z,19.90
2023-04-01T14:42:27.535Z,19.20
2023-04-01T14:45:29.119Z,19.20
2023-04-01T14:48:00.044Z,19.10
2023-04-01T14:50:44.873Z,19.50
2023-04-01T14:53:29.569Z,22.60
2023-04-01T14:56:01.738Z,22.00
2023-04-01T14:59:00.068Z,22.20
2023-04-01T15:02:01.359Z,21.40
2023-04-01T15:04:53.313Z,19.60
2023-04-01T15:08:06.482Z,19.50
2023-04-01T15:11:24.764Z,19.40
2023-04-01T15:14:06.338Z,19.40
2023-04-01T15:16:56.928Z,19.00
2023-04-01T15:19:40.632Z,18.90
2023-04-01T15:22:39.777Z,18.80
2023-04-01T15:25:18.555Z,18.80
2023-04-01T15:28:26.922Z,18.80
2023-04-01T15:31:13.626Z,18.80
2023-04-01T15:34:22.043Z,18.70
2023-04-01T15:37:02.773Z,18.70
2023-04-01T15:39:58.155Z,18.60
2023-04-01T15:46:32.876Z,19.00
2023-04-01T15:49:44.953Z,19.30
2023-04-01T15:52:57.593Z,19.60
2023-04-01T15:56:07.313Z,20.20
2023-04-01T15:59:31.973Z,20.00
2023-04-01T16:02:22.343Z,20.70
2023-04-01T16:05:23.031Z,20.20
2023-04-01T16:08:23.022Z,20.50
2023-04-01T16:11:08.173Z,21.20
2023-04-01T16:13:47.496Z,20.30
2023-04-01T16:16:45.492Z,19.90
2023-04-01T16:19:52.381Z,20.70
2023-04-01T16:22:44.995Z,20.80
2023-04-01T16:25:37.753Z,20.10
2023-04-01T16:28:32.974Z,20.10
2023-04-01T16:31:09.222Z,19.10
2023-04-01T16:34:01.993Z,18.70
2023-04-01T16:36:53.873Z,18.80
2023-04-01T16:39:41.833Z,18.60
2023-04-01T16:42:37.357Z,18.30
2023-04-01T16:45:18.453Z,18.20
2023-04-01T16:48:11.288Z,18.10
2023-04-01T16:51:01.162Z,18.00
2023-04-01T16:53:51.573Z,18.00
2023-04-01T16:56:29.820Z,17.90
2023-04-01T16:58:57.069Z,17.90
2023-04-01T17:01:49.139Z,17.80
2023-04-01T17:04:36.012Z,17.80
2023-04-01T17:07:38.114Z,17.80
2023-04-01T17:10:18.348Z,17.80
2023-04-01T17:12:50.754Z,17.70
2023-04-01T17:15:50.549Z,17.70
2023-04-01T17:22:08.404Z,17.50
2023-04-01T17:25:05.291Z,17.50
2023-04-01T17:28:00.726Z,17.00
2023-04-01T17:30:38.108Z,16.70
2023-04-01T17:33:39.949Z,16.60
2023-04-01T17:37:06.538Z,16.60
2023-04-01T17:40:15.312Z,16.20
2023-04-01T17:43:05.437Z,16.10
2023-04-01T17:46:01.971Z,16.00
2023-04-01T17:48:43.068Z,16.00
2023-04-01T17:51:13.203Z,15.80
2023-04-01T17:54:13.210Z,15.80
2023-04-01T17:57:04.303Z,15.80
2023-04-01T17:59:40.366Z,15.90
2023-04-01T18:02:19.471Z,15.90
2023-04-01T18:05:05.065Z,15.70
2023-04-01T18:08:15.125Z,15.70
2023-04-01T18:11:01.254Z,15.70
2023-04-01T18:13:57.985Z,15.60
2023-04-01T18:16:29.954Z,15.60
2023-04-01T18:19:16.732Z,15.40
2023-04-01T18:22:18.130Z,15.40
2023-04-01T18:24:51.878Z,14.90
2023-04-01T18:27:43.223Z,14.80
2023-04-01T18:30:38.677Z,14.80
2023-04-01T18:33:28.692Z,14.70
2023-04-01T18:36:26.292Z,14.60
2023-04-01T18:39:10.673Z,14.60
2023-04-01T18:42:24.927Z,14.60
2023-04-01T18:45:02.297Z,14.50
2023-04-01T18:47:58.605Z,14.60
2023-04-01T18:51:03.450Z,14.60
2023-04-01T18:53:41.530Z,14.50
2023-04-01T18:56:14.111Z,14.50
2023-04-01T18:59:30.691Z,14.50
2023-04-01T19:02:04.574Z,14.30
2023-04-01T19:04:43.664Z,14.50
2023-04-01T19:07:47.200Z,14.40
2023-04-01T19:10:17.148Z,14.60
2023-04-01T19:12:50.454Z,14.70
2023-04-01T19:15:39.611Z,14.50
2023-04-01T19:18:56.347Z,14.60
2023-04-01T19:21:45.936Z,14.40
2023-04-01T19:24:21.095Z,14.30
2023-04-01T19:27:14.378Z,14.30
2023-04-01T19:30:11.098Z,14.20
2023-04-01T19:33:15.815Z,14.00
2023-04-01T19:36:12.734Z,14.00
2023-04-01T19:38:53.411Z,13.90
2023-04-01T19:41:41.058Z,14.10
2023-04-01T19:44:39.355Z,14.10
2023-04-01T19:47:22.167Z,14.10
2023-04-01T19:50:23.680Z,14.10
2023-04-01T19:52:59.848Z,14.00
2023-04-01T19:55:47.786Z,14.20
2023-04-01T19:58:46.556Z,14.00
2023-04-01T20:01:32.013Z,14.00
2023-04-01T20:04:24.649Z,14.00
2023-04-01T20:07:06.460Z,13.80
2023-04-01T20:10:21.301Z,13.80
2023-04-01T20:13:36.020Z,13.90
2023-04-01T20:16:12.629Z,13.90
2023-04-01T20:19:06.575Z,13.70
2023-04-01T20:21:51.463Z,13.80
2023-04-01T20:24:47.140Z,13.60
2023-04-01T20:27:14.274Z,13.70
2023-04-01T20:30:07.087Z,13.70
2023-04-01T20:32:58.675Z,13.60
2023-04-01T20:35:37.738Z,13.80
2023-04-01T20:38:41.999Z,13.80
2023-04-01T20:41:37.739Z,13.80
2023-04-01T20:44:07.690Z,13.80
2023-04-01T20:46:56.907Z,13.80
2023-04-01T20:49:48.704Z,13.70
2023-04-01T20:52:21.878Z,13.60
2023-04-01T20:54:54.793Z,13.30
2023-04-01T20:57:27.965Z,12.90
2023-04-01T21:00:06.054Z,12.70
2023-04-01T21:03:10.887Z,12.50
2023-04-01T21:06:03.843Z,12.50
2023-04-01T21:08:58.850Z,12.90
2023-04-01T21:11:56.641Z,12.80
2023-04-01T21:14:53.693Z,12.70
2023-04-01T21:17:39.460Z,12.50
2023-04-01T21:20:33.950Z,12.30
2023-04-01T21:23:11.593Z,12.30
2023-04-01T21:26:02.076Z,12.30
2023-04-01T21:28:50.518Z,12.30
2023-04-01T21:32:04.703Z,12.30
2023-04-01T21:34:32.173Z,12.10
2023-04-01T21:37:02.355Z,12.10
2023-04-01T21:39:58.234Z,12.00
2023-04-01T21:42:51.666Z,12.10
2023-04-01T21:45:31.520Z,11.90
2023-04-01T21:48:31.408Z,11.90
2023-04-01T21:51:27.809Z,12.00
2023-04-01T21:53:57.984Z,11.90
2023-04-01T21:57:02.018Z,11.80
2023-04-01T22:00:02.442Z,11.80
2023-04-01T22:02:56.004Z,11.60
2023-04-01T22:05:38.374Z,11.50
2023-04-01T22:08:30.484Z,11.60
2023-04-01T22:11:22.925Z,11.60
2023-04-01T22:14:21.318Z,11.60
2023-04-01T22:17:09.961Z,11.60
2023-04-01T22:20:05.840Z,11.70
2023-04-01T22:23:09.159Z,11.70
2023-04-01T22:25:45.555Z,11.60
2023-04-01T22:28:37.818Z,11.60
2023-04-01T22:31:10.067Z,11.70
2023-04-01T22:33:59.366Z,11.70
2023-04-01T22:37:00.014Z,11.60
2023-04-01T22:39:52.456Z,11.50
2023-04-01T22:42:31.759Z,11.40
2023-04-01T22:45:14.254Z,11.50
2023-04-01T22:48:06.828Z,11.40
2023-04-01T22:51:01.833Z,11.50
2023-04-01T22:53:41.436Z,11.50
2023-04-01T22:56:16.852Z,11.50
2023-04-01T22:59:03.510Z,11.50
2023-04-01T23:01:36.061Z,11.30
2023-04-01T23:04:06.232Z,11.40
2023-04-01T23:06:49.447Z,11.50
2023-04-01T23:09:22.119Z,11.40
2023-04-01T23:11:54.682Z,11.40
2023-04-01T23:14:21.955Z,11.40
2023-04-01T23:17:17.617Z,11.60
2023-04-01T23:20:00.553Z,11.70
2023-04-01T23:22:38.189Z,11.60
2023-04-01T23:25:26.490Z,11.50
2023-04-01T23:28:26.394Z,11.40
2023-04-01T23:31:03.270Z,11.50
2023-04-01T23:33:32.858Z,11.50
2023-04-01T23:36:15.936Z,11.30
2023-04-01T23:38:48.150Z,11.30
2023-04-01T23:41:39.114Z,11.30
2023-04-01T23:44:17.931Z,11.40
2023-04-01T23:46:48.901Z,11.30
2023-04-01T23:49:35.252Z,11.40
2023-04-01T23:52:28.396Z,11.40
2023-04-01T23:55:18.771Z,11.50
2023-04-01T23:58:08.584Z,11.50
